sensor_id;sensor_type;location;lat;lon;timestamp;temperature;humidity
46043;DHT22;32533;-33.854;18.542;2022-09-09T00:09:28;17.60;81.60
46043;DHT22;32533;-33.854;18.542;2022-09-09T00:15:12;17.50;81.50
46043;DHT22;32533;-33.854;18.542;2022-09-09T00:20:39;17.60;82.00
46043;DHT22;32533;-33.854;18.542;2022-09-09T00:23:33;17.60;82.30
46043;DHT22;32533;-33.854;18.542;2022-09-09T00:28:30;17.50;82.20
46043;DHT22;32533;-33.854;18.542;2022-09-09T00:31:12;17.50;82.10
46043;DHT22;32533;-33.854;18.542;2022-09-09T00:33:39;17.50;82.10
46043;DHT22;32533;-33.854;18.542;2022-09-09T00:36:13;17.50;82.10
46043;DHT22;32533;-33.854;18.542;2022-09-09T00:38:55;17.50;82.20
46043;DHT22;32533;-33.854;18.542;2022-09-09T00:44:25;17.50;82.30
46043;DHT22;32533;-33.854;18.542;2022-09-09T00:47:09;17.50;82.40
46043;DHT22;32533;-33.854;18.542;2022-09-09T00:57:53;17.40;83.00
46043;DHT22;32533;-33.854;18.542;2022-09-09T01:03:35;17.40;83.30
46043;DHT22;32533;-33.854;18.542;2022-09-09T01:06:16;17.40;83.40
46043;DHT22;32533;-33.854;18.542;2022-09-09T01:14:34;17.40;83.50
46043;DHT22;32533;-33.854;18.542;2022-09-09T01:17:24;17.40;83.40
46043;DHT22;32533;-33.854;18.542;2022-09-09T01:23:25;17.40;83.70
46043;DHT22;32533;-33.854;18.542;2022-09-09T01:25:29;17.30;83.60
46043;DHT22;32533;-33.854;18.542;2022-09-09T01:28:02;17.30;83.70
46043;DHT22;32533;-33.854;18.542;2022-09-09T01:30:29;17.30;83.80
46043;DHT22;32533;-33.854;18.542;2022-09-09T01:32:58;17.30;83.70
46043;DHT22;32533;-33.854;18.542;2022-09-09T01:38:17;17.30;83.60
46043;DHT22;32533;-33.854;18.542;2022-09-09T01:40:44;17.30;83.50
46043;DHT22;32533;-33.854;18.542;2022-09-09T01:43:11;17.30;83.50
46043;DHT22;32533;-33.854;18.542;2022-09-09T01:45:39;17.30;83.50
46043;DHT22;32533;-33.854;18.542;2022-09-09T01:48:07;17.30;83.40
46043;DHT22;32533;-33.854;18.542;2022-09-09T01:50:33;17.20;83.30
46043;DHT22;32533;-33.854;18.542;2022-09-09T01:53:01;17.20;83.30
46043;DHT22;32533;-33.854;18.542;2022-09-09T01:55:40;17.20;83.20
46043;DHT22;32533;-33.854;18.542;2022-09-09T01:58:11;17.30;83.30
46043;DHT22;32533;-33.854;18.542;2022-09-09T02:00:45;17.30;83.30
46043;DHT22;32533;-33.854;18.542;2022-09-09T02:03:28;17.30;83.20
46043;DHT22;32533;-33.854;18.542;2022-09-09T02:06:12;17.30;83.10
46043;DHT22;32533;-33.854;18.542;2022-09-09T02:08:50;17.20;83.00
46043;DHT22;32533;-33.854;18.542;2022-09-09T02:13:45;17.20;82.90
46043;DHT22;32533;-33.854;18.542;2022-09-09T02:16:35;17.20;82.90
46043;DHT22;32533;-33.854;18.542;2022-09-09T02:19:21;17.20;82.90
46043;DHT22;32533;-33.854;18.542;2022-09-09T02:21:53;17.20;82.90
46043;DHT22;32533;-33.854;18.542;2022-09-09T02:24:21;17.20;83.00
46043;DHT22;32533;-33.854;18.542;2022-09-09T02:26:51;17.20;83.20
46043;DHT22;32533;-33.854;18.542;2022-09-09T02:29:30;17.20;83.40
46043;DHT22;32533;-33.854;18.542;2022-09-09T02:31:59;17.20;83.50
46043;DHT22;32533;-33.854;18.542;2022-09-09T02:34:30;17.20;83.10
46043;DHT22;32533;-33.854;18.542;2022-09-09T02:36:59;17.10;82.60
46043;DHT22;32533;-33.854;18.542;2022-09-09T02:39:27;17.10;82.30
46043;DHT22;32533;-33.854;18.542;2022-09-09T02:41:53;17.10;82.20
46043;DHT22;32533;-33.854;18.542;2022-09-09T02:44:20;17.10;82.10
46043;DHT22;32533;-33.854;18.542;2022-09-09T02:47:16;17.00;81.90
46043;DHT22;32533;-33.854;18.542;2022-09-09T02:52:32;17.00;81.50
46043;DHT22;32533;-33.854;18.542;2022-09-09T02:55:06;17.00;81.20
46043;DHT22;32533;-33.854;18.542;2022-09-09T02:57:35;17.00;81.80
46043;DHT22;32533;-33.854;18.542;2022-09-09T03:00:04;17.00;81.10
46043;DHT22;32533;-33.854;18.542;2022-09-09T03:02:31;17.00;81.00
46043;DHT22;32533;-33.854;18.542;2022-09-09T03:04:57;16.90;80.80
46043;DHT22;32533;-33.854;18.542;2022-09-09T03:07:24;16.90;80.80
46043;DHT22;32533;-33.854;18.542;2022-09-09T03:09:50;16.90;80.90
46043;DHT22;32533;-33.854;18.542;2022-09-09T03:12:19;16.90;81.00
46043;DHT22;32533;-33.854;18.542;2022-09-09T03:14:46;16.80;81.00
46043;DHT22;32533;-33.854;18.542;2022-09-09T03:17:13;16.70;81.00
46043;DHT22;32533;-33.854;18.542;2022-09-09T03:19:39;16.70;81.00
46043;DHT22;32533;-33.854;18.542;2022-09-09T03:22:06;16.70;81.00
46043;DHT22;32533;-33.854;18.542;2022-09-09T03:24:32;16.70;81.00
46043;DHT22;32533;-33.854;18.542;2022-09-09T03:26:59;16.70;81.10
46043;DHT22;32533;-33.854;18.542;2022-09-09T03:29:25;16.70;81.90
46043;DHT22;32533;-33.854;18.542;2022-09-09T03:31:52;16.70;82.30
46043;DHT22;32533;-33.854;18.542;2022-09-09T03:34:18;16.70;82.60
46043;DHT22;32533;-33.854;18.542;2022-09-09T03:37:04;16.70;82.70
46043;DHT22;32533;-33.854;18.542;2022-09-09T03:40:11;16.70;82.50
46043;DHT22;32533;-33.854;18.542;2022-09-09T03:43:16;16.70;82.10
46043;DHT22;32533;-33.854;18.542;2022-09-09T03:46:23;16.60;81.90
46043;DHT22;32533;-33.854;18.542;2022-09-09T03:49:29;16.60;82.10
46043;DHT22;32533;-33.854;18.542;2022-09-09T03:52:36;16.50;82.10
46043;DHT22;32533;-33.854;18.542;2022-09-09T03:55:48;16.60;82.20
46043;DHT22;32533;-33.854;18.542;2022-09-09T03:58:54;16.50;82.10
46043;DHT22;32533;-33.854;18.542;2022-09-09T04:02:00;16.50;82.10
46043;DHT22;32533;-33.854;18.542;2022-09-09T04:05:07;16.50;82.20
46043;DHT22;32533;-33.854;18.542;2022-09-09T04:08:13;16.50;82.20
46043;DHT22;32533;-33.854;18.542;2022-09-09T04:11:19;16.50;82.40
46043;DHT22;32533;-33.854;18.542;2022-09-09T04:14:25;16.50;82.90
46043;DHT22;32533;-33.854;18.542;2022-09-09T04:17:31;16.50;82.90
46043;DHT22;32533;-33.854;18.542;2022-09-09T04:20:37;16.40;82.80
46043;DHT22;32533;-33.854;18.542;2022-09-09T04:23:43;16.40;83.40
46043;DHT22;32533;-33.854;18.542;2022-09-09T04:26:49;16.50;83.90
46043;DHT22;32533;-33.854;18.542;2022-09-09T04:29:55;16.50;84.10
46043;DHT22;32533;-33.854;18.542;2022-09-09T04:32:41;16.50;84.20
46043;DHT22;32533;-33.854;18.542;2022-09-09T04:35:08;16.50;84.20
46043;DHT22;32533;-33.854;18.542;2022-09-09T04:37:54;16.40;84.10
46043;DHT22;32533;-33.854;18.542;2022-09-09T04:41:03;16.40;84.00
46043;DHT22;32533;-33.854;18.542;2022-09-09T04:44:09;16.40;84.30
46043;DHT22;32533;-33.854;18.542;2022-09-09T04:46:56;16.50;84.50
46043;DHT22;32533;-33.854;18.542;2022-09-09T04:49:22;16.40;84.30
46043;DHT22;32533;-33.854;18.542;2022-09-09T04:51:49;16.40;84.10
46043;DHT22;32533;-33.854;18.542;2022-09-09T04:54:16;16.40;84.00
46043;DHT22;32533;-33.854;18.542;2022-09-09T04:56:42;16.40;84.00
46043;DHT22;32533;-33.854;18.542;2022-09-09T04:59:09;16.40;84.00
46043;DHT22;32533;-33.854;18.542;2022-09-09T05:01:36;16.30;84.00
46043;DHT22;32533;-33.854;18.542;2022-09-09T05:04:02;16.30;84.00
46043;DHT22;32533;-33.854;18.542;2022-09-09T05:06:29;16.30;84.00
46043;DHT22;32533;-33.854;18.542;2022-09-09T05:08:58;16.30;84.00
46043;DHT22;32533;-33.854;18.542;2022-09-09T05:11:28;16.30;84.00
46043;DHT22;32533;-33.854;18.542;2022-09-09T05:13:55;16.30;84.10
46043;DHT22;32533;-33.854;18.542;2022-09-09T05:16:22;16.30;84.10
46043;DHT22;32533;-33.854;18.542;2022-09-09T05:18:49;16.30;84.10
46043;DHT22;32533;-33.854;18.542;2022-09-09T05:21:18;16.30;84.70
46043;DHT22;32533;-33.854;18.542;2022-09-09T05:23:45;16.30;84.30
46043;DHT22;32533;-33.854;18.542;2022-09-09T05:26:17;16.30;84.10
46043;DHT22;32533;-33.854;18.542;2022-09-09T05:28:45;16.30;84.20
46043;DHT22;32533;-33.854;18.542;2022-09-09T05:31:13;16.30;84.30
46043;DHT22;32533;-33.854;18.542;2022-09-09T05:33:41;16.30;84.30
46043;DHT22;32533;-33.854;18.542;2022-09-09T05:36:11;16.30;84.40
46043;DHT22;32533;-33.854;18.542;2022-09-09T05:38:41;16.20;84.50
46043;DHT22;32533;-33.854;18.542;2022-09-09T05:41:08;16.20;84.60
46043;DHT22;32533;-33.854;18.542;2022-09-09T05:43:37;16.20;84.70
46043;DHT22;32533;-33.854;18.542;2022-09-09T05:46:05;16.20;84.80
46043;DHT22;32533;-33.854;18.542;2022-09-09T05:48:34;16.20;85.00
46043;DHT22;32533;-33.854;18.542;2022-09-09T05:51:01;16.20;85.00
46043;DHT22;32533;-33.854;18.542;2022-09-09T05:53:29;16.20;85.10
46043;DHT22;32533;-33.854;18.542;2022-09-09T05:56:05;16.20;85.30
46043;DHT22;32533;-33.854;18.542;2022-09-09T05:58:32;16.20;85.30
46043;DHT22;32533;-33.854;18.542;2022-09-09T06:01:04;16.20;85.50
46043;DHT22;32533;-33.854;18.542;2022-09-09T06:03:31;16.20;85.60
46043;DHT22;32533;-33.854;18.542;2022-09-09T06:05:59;16.20;85.70
46043;DHT22;32533;-33.854;18.542;2022-09-09T06:08:25;16.30;85.80
46043;DHT22;32533;-33.854;18.542;2022-09-09T06:10:52;16.30;85.90
46043;DHT22;32533;-33.854;18.542;2022-09-09T06:13:19;16.30;86.00
46043;DHT22;32533;-33.854;18.542;2022-09-09T06:15:52;16.30;86.60
46043;DHT22;32533;-33.854;18.542;2022-09-09T06:18:19;16.30;87.00
46043;DHT22;32533;-33.854;18.542;2022-09-09T06:21:02;16.30;87.30
46043;DHT22;32533;-33.854;18.542;2022-09-09T06:23:33;16.40;87.60
46043;DHT22;32533;-33.854;18.542;2022-09-09T06:26:09;16.40;87.90
46043;DHT22;32533;-33.854;18.542;2022-09-09T06:28:36;16.40;88.10
46043;DHT22;32533;-33.854;18.542;2022-09-09T06:31:11;16.50;88.30
46043;DHT22;32533;-33.854;18.542;2022-09-09T06:33:40;16.50;88.40
46043;DHT22;32533;-33.854;18.542;2022-09-09T06:36:27;16.60;88.60
46043;DHT22;32533;-33.854;18.542;2022-09-09T06:38:54;16.60;88.70
46043;DHT22;32533;-33.854;18.542;2022-09-09T06:41:22;16.60;88.80
46043;DHT22;32533;-33.854;18.542;2022-09-09T06:43:49;16.60;88.90
46043;DHT22;32533;-33.854;18.542;2022-09-09T06:46:18;16.70;89.10
46043;DHT22;32533;-33.854;18.542;2022-09-09T06:48:45;16.70;89.20
46043;DHT22;32533;-33.854;18.542;2022-09-09T06:51:14;16.70;89.50
46043;DHT22;32533;-33.854;18.542;2022-09-09T06:53:42;16.70;89.50
46043;DHT22;32533;-33.854;18.542;2022-09-09T06:58:39;16.80;89.80
46043;DHT22;32533;-33.854;18.542;2022-09-09T07:01:09;16.80;89.70
46043;DHT22;32533;-33.854;18.542;2022-09-09T07:03:36;16.80;89.50
46043;DHT22;32533;-33.854;18.542;2022-09-09T07:06:03;16.80;89.40
46043;DHT22;32533;-33.854;18.542;2022-09-09T07:08:29;16.90;89.40
46043;DHT22;32533;-33.854;18.542;2022-09-09T07:11:07;16.90;89.10
46043;DHT22;32533;-33.854;18.542;2022-09-09T07:13:34;16.90;88.90
46043;DHT22;32533;-33.854;18.542;2022-09-09T07:16:13;16.90;88.70
46043;DHT22;32533;-33.854;18.542;2022-09-09T07:18:40;16.90;88.40
46043;DHT22;32533;-33.854;18.542;2022-09-09T07:21:08;16.90;88.10
46043;DHT22;32533;-33.854;18.542;2022-09-09T07:23:35;17.00;87.80
46043;DHT22;32533;-33.854;18.542;2022-09-09T07:26:06;17.00;87.70
46043;DHT22;32533;-33.854;18.542;2022-09-09T07:28:33;17.00;87.40
46043;DHT22;32533;-33.854;18.542;2022-09-09T07:31:01;17.10;87.20
46043;DHT22;32533;-33.854;18.542;2022-09-09T07:33:33;17.10;87.10
46043;DHT22;32533;-33.854;18.542;2022-09-09T07:36:09;17.10;87.00
46043;DHT22;32533;-33.854;18.542;2022-09-09T07:38:39;17.20;86.90
46043;DHT22;32533;-33.854;18.542;2022-09-09T07:41:13;17.20;86.80
46043;DHT22;32533;-33.854;18.542;2022-09-09T07:43:41;17.30;86.70
46043;DHT22;32533;-33.854;18.542;2022-09-09T07:46:09;17.30;86.50
46043;DHT22;32533;-33.854;18.542;2022-09-09T07:48:36;17.30;86.40
46043;DHT22;32533;-33.854;18.542;2022-09-09T07:51:09;17.40;86.40
46043;DHT22;32533;-33.854;18.542;2022-09-09T07:53:38;17.40;86.80
46043;DHT22;32533;-33.854;18.542;2022-09-09T07:56:08;17.50;87.30
46043;DHT22;32533;-33.854;18.542;2022-09-09T07:58:39;17.50;87.20
46043;DHT22;32533;-33.854;18.542;2022-09-09T08:01:15;17.60;87.30
46043;DHT22;32533;-33.854;18.542;2022-09-09T08:03:45;17.60;87.40
46043;DHT22;32533;-33.854;18.542;2022-09-09T08:06:12;17.70;88.10
46043;DHT22;32533;-33.854;18.542;2022-09-09T08:08:40;17.70;87.30
46043;DHT22;32533;-33.854;18.542;2022-09-09T08:11:14;17.80;87.20
46043;DHT22;32533;-33.854;18.542;2022-09-09T08:13:42;17.80;87.10
46043;DHT22;32533;-33.854;18.542;2022-09-09T08:16:17;17.80;86.70
46043;DHT22;32533;-33.854;18.542;2022-09-09T08:18:44;17.90;86.40
46043;DHT22;32533;-33.854;18.542;2022-09-09T08:21:13;17.90;86.30
46043;DHT22;32533;-33.854;18.542;2022-09-09T08:23:41;18.00;86.10
46043;DHT22;32533;-33.854;18.542;2022-09-09T08:26:12;18.00;85.90
46043;DHT22;32533;-33.854;18.542;2022-09-09T08:28:40;18.10;85.60
46043;DHT22;32533;-33.854;18.542;2022-09-09T08:31:15;18.10;85.20
46043;DHT22;32533;-33.854;18.542;2022-09-09T08:33:43;18.20;84.70
46043;DHT22;32533;-33.854;18.542;2022-09-09T08:36:17;18.20;84.10
46043;DHT22;32533;-33.854;18.542;2022-09-09T08:38:46;18.30;83.80
46043;DHT22;32533;-33.854;18.542;2022-09-09T08:44:23;18.30;82.70
46043;DHT22;32533;-33.854;18.542;2022-09-09T08:47:25;18.40;82.30
46043;DHT22;32533;-33.854;18.542;2022-09-09T08:55:50;18.50;81.10
46043;DHT22;32533;-33.854;18.542;2022-09-09T08:58:23;18.50;80.70
46043;DHT22;32533;-33.854;18.542;2022-09-09T09:01:15;18.60;80.30
46043;DHT22;32533;-33.854;18.542;2022-09-09T09:09:11;18.70;78.90
46043;DHT22;32533;-33.854;18.542;2022-09-09T09:11:51;18.80;78.70
46043;DHT22;32533;-33.854;18.542;2022-09-09T09:14:21;18.80;78.20
46043;DHT22;32533;-33.854;18.542;2022-09-09T09:16:58;18.90;77.70
46043;DHT22;32533;-33.854;18.542;2022-09-09T09:19:25;18.90;77.40
46043;DHT22;32533;-33.854;18.542;2022-09-09T09:22:05;19.00;77.10
46043;DHT22;32533;-33.854;18.542;2022-09-09T09:27:31;19.10;76.00
46043;DHT22;32533;-33.854;18.542;2022-09-09T09:30:11;19.10;75.50
46043;DHT22;32533;-33.854;18.542;2022-09-09T09:32:40;19.10;75.40
46043;DHT22;32533;-33.854;18.542;2022-09-09T09:35:12;19.20;75.30
46043;DHT22;32533;-33.854;18.542;2022-09-09T09:37:41;19.30;74.90
46043;DHT22;32533;-33.854;18.542;2022-09-09T09:40:11;19.30;74.80
46043;DHT22;32533;-33.854;18.542;2022-09-09T09:43:00;19.40;74.70
46043;DHT22;32533;-33.854;18.542;2022-09-09T09:45:35;19.40;74.30
46043;DHT22;32533;-33.854;18.542;2022-09-09T09:48:04;19.50;73.90
46043;DHT22;32533;-33.854;18.542;2022-09-09T09:50:32;19.60;73.60
46043;DHT22;32533;-33.854;18.542;2022-09-09T09:53:04;19.60;73.50
46043;DHT22;32533;-33.854;18.542;2022-09-09T09:55:32;19.60;72.80
46043;DHT22;32533;-33.854;18.542;2022-09-09T09:58:06;19.70;72.20
46043;DHT22;32533;-33.854;18.542;2022-09-09T10:00:33;19.70;72.00
46043;DHT22;32533;-33.854;18.542;2022-09-09T10:03:19;19.80;72.00
46043;DHT22;32533;-33.854;18.542;2022-09-09T10:05:47;19.90;71.50
46043;DHT22;32533;-33.854;18.542;2022-09-09T10:08:15;19.90;70.80
46043;DHT22;32533;-33.854;18.542;2022-09-09T10:11:26;19.90;70.80
46043;DHT22;32533;-33.854;18.542;2022-09-09T10:17:00;20.10;70.90
46043;DHT22;32533;-33.854;18.542;2022-09-09T10:19:33;20.10;70.20
46043;DHT22;32533;-33.854;18.542;2022-09-09T10:54:29;20.90;67.60
46043;DHT22;32533;-33.854;18.542;2022-09-09T10:57:25;20.90;67.50
46043;DHT22;32533;-33.854;18.542;2022-09-09T10:59:58;21.00;67.00
46043;DHT22;32533;-33.854;18.542;2022-09-09T11:02:30;21.00;66.70
46043;DHT22;32533;-33.854;18.542;2022-09-09T11:05:21;21.10;66.80
46043;DHT22;32533;-33.854;18.542;2022-09-09T11:08:01;21.20;66.70
46043;DHT22;32533;-33.854;18.542;2022-09-09T11:10:45;21.20;66.80
46043;DHT22;32533;-33.854;18.542;2022-09-09T11:16:46;21.30;66.10
46043;DHT22;32533;-33.854;18.542;2022-09-09T11:18:50;21.40;65.90
46043;DHT22;32533;-33.854;18.542;2022-09-09T11:21:23;21.40;65.70
46043;DHT22;32533;-33.854;18.542;2022-09-09T11:23:56;21.50;65.50
46043;DHT22;32533;-33.854;18.542;2022-09-09T11:26:33;21.60;65.20
46043;DHT22;32533;-33.854;18.542;2022-09-09T11:35:09;21.70;64.20
46043;DHT22;32533;-33.854;18.542;2022-09-09T11:40:24;21.80;63.60
46043;DHT22;32533;-33.854;18.542;2022-09-09T11:45:40;21.90;62.80
46043;DHT22;32533;-33.854;18.542;2022-09-09T11:48:33;21.90;62.70
46043;DHT22;32533;-33.854;18.542;2022-09-09T11:53:51;22.00;61.80
46043;DHT22;32533;-33.854;18.542;2022-09-09T12:01:37;22.10;61.20
46043;DHT22;32533;-33.854;18.542;2022-09-09T12:07:00;22.20;60.30
46043;DHT22;32533;-33.854;18.542;2022-09-09T14:37:21;21.70;62.90
46043;DHT22;32533;-33.854;18.542;2022-09-09T14:39:48;21.70;63.20
46043;DHT22;32533;-33.854;18.542;2022-09-09T14:42:17;21.70;63.60
46043;DHT22;32533;-33.854;18.542;2022-09-09T14:44:43;21.70;63.60
46043;DHT22;32533;-33.854;18.542;2022-09-09T14:47:10;21.70;63.70
46043;DHT22;32533;-33.854;18.542;2022-09-09T14:49:37;21.70;63.60
46043;DHT22;32533;-33.854;18.542;2022-09-09T14:52:04;21.70;63.70
46043;DHT22;32533;-33.854;18.542;2022-09-09T14:54:31;21.70;64.00
46043;DHT22;32533;-33.854;18.542;2022-09-09T14:56:58;21.70;64.50
46043;DHT22;32533;-33.854;18.542;2022-09-09T14:59:25;21.80;65.10
46043;DHT22;32533;-33.854;18.542;2022-09-09T15:01:52;21.70;64.50
46043;DHT22;32533;-33.854;18.542;2022-09-09T15:04:19;21.70;64.80
46043;DHT22;32533;-33.854;18.542;2022-09-09T15:06:46;21.70;65.60
46043;DHT22;32533;-33.854;18.542;2022-09-09T15:09:14;21.60;65.70
46043;DHT22;32533;-33.854;18.542;2022-09-09T15:11:41;21.60;66.00
46043;DHT22;32533;-33.854;18.542;2022-09-09T15:14:09;21.50;66.10
46043;DHT22;32533;-33.854;18.542;2022-09-09T15:16:35;21.50;66.10
46043;DHT22;32533;-33.854;18.542;2022-09-09T15:19:02;21.50;66.20
46043;DHT22;32533;-33.854;18.542;2022-09-09T15:21:32;21.40;66.20
46043;DHT22;32533;-33.854;18.542;2022-09-09T15:24:18;21.40;66.30
46043;DHT22;32533;-33.854;18.542;2022-09-09T15:27:24;21.40;66.50
46043;DHT22;32533;-33.854;18.542;2022-09-09T15:30:31;21.40;66.60
46043;DHT22;32533;-33.854;18.542;2022-09-09T15:33:37;21.30;66.90
46043;DHT22;32533;-33.854;18.542;2022-09-09T15:36:47;21.30;67.00
46043;DHT22;32533;-33.854;18.542;2022-09-09T15:39:32;21.30;66.90
46043;DHT22;32533;-33.854;18.542;2022-09-09T15:42:38;21.20;66.80
46043;DHT22;32533;-33.854;18.542;2022-09-09T15:45:45;21.30;66.70
46043;DHT22;32533;-33.854;18.542;2022-09-09T15:48:31;21.20;66.80
46043;DHT22;32533;-33.854;18.542;2022-09-09T15:51:37;21.20;66.90
46043;DHT22;32533;-33.854;18.542;2022-09-09T15:54:49;21.10;67.10
46043;DHT22;32533;-33.854;18.542;2022-09-09T15:57:55;21.10;68.40
46043;DHT22;32533;-33.854;18.542;2022-09-09T16:01:02;21.00;68.60
46043;DHT22;32533;-33.854;18.542;2022-09-09T16:04:07;21.00;68.50
46043;DHT22;32533;-33.854;18.542;2022-09-09T16:07:20;20.90;69.30
46043;DHT22;32533;-33.854;18.542;2022-09-09T16:10:28;20.90;70.00
46043;DHT22;32533;-33.854;18.542;2022-09-09T16:13:34;20.90;70.60
46043;DHT22;32533;-33.854;18.542;2022-09-09T16:16:40;20.80;70.80
46043;DHT22;32533;-33.854;18.542;2022-09-09T16:19:46;20.80;70.80
46043;DHT22;32533;-33.854;18.542;2022-09-09T16:22:54;20.70;70.90
46043;DHT22;32533;-33.854;18.542;2022-09-09T16:26:00;20.70;71.70
46043;DHT22;32533;-33.854;18.542;2022-09-09T16:29:06;20.70;72.30
46043;DHT22;32533;-33.854;18.542;2022-09-09T16:32:12;20.60;72.20
46043;DHT22;32533;-33.854;18.542;2022-09-09T16:35:21;20.60;72.30
46043;DHT22;32533;-33.854;18.542;2022-09-09T16:38:27;20.50;73.50
46043;DHT22;32533;-33.854;18.542;2022-09-09T16:41:33;20.50;73.80
46043;DHT22;32533;-33.854;18.542;2022-09-09T16:44:39;20.40;73.60
46043;DHT22;32533;-33.854;18.542;2022-09-09T16:47:45;20.30;73.60
46043;DHT22;32533;-33.854;18.542;2022-09-09T16:50:51;20.30;73.80
46043;DHT22;32533;-33.854;18.542;2022-09-09T16:54:00;20.30;74.20
46043;DHT22;32533;-33.854;18.542;2022-09-09T16:57:06;20.30;75.00
46043;DHT22;32533;-33.854;18.542;2022-09-09T16:59:49;20.30;75.50
46043;DHT22;32533;-33.854;18.542;2022-09-09T17:02:19;20.20;75.70
46043;DHT22;32533;-33.854;18.542;2022-09-09T17:04:46;20.20;75.40
46043;DHT22;32533;-33.854;18.542;2022-09-09T17:07:13;20.20;75.10
46043;DHT22;32533;-33.854;18.542;2022-09-09T17:09:39;20.20;74.60
46043;DHT22;32533;-33.854;18.542;2022-09-09T17:12:06;20.20;74.60
46043;DHT22;32533;-33.854;18.542;2022-09-09T17:14:34;20.10;74.20
46043;DHT22;32533;-33.854;18.542;2022-09-09T17:17:01;20.10;73.80
46043;DHT22;32533;-33.854;18.542;2022-09-09T17:19:28;20.10;73.80
46043;DHT22;32533;-33.854;18.542;2022-09-09T17:21:54;20.10;73.90
46043;DHT22;32533;-33.854;18.542;2022-09-09T17:24:23;20.00;74.00
46043;DHT22;32533;-33.854;18.542;2022-09-09T17:26:51;20.00;74.10
46043;DHT22;32533;-33.854;18.542;2022-09-09T17:29:18;20.00;74.10
46043;DHT22;32533;-33.854;18.542;2022-09-09T17:31:44;20.00;74.10
46043;DHT22;32533;-33.854;18.542;2022-09-09T17:34:11;19.90;74.50
46043;DHT22;32533;-33.854;18.542;2022-09-09T17:36:37;20.00;75.70
46043;DHT22;32533;-33.854;18.542;2022-09-09T17:39:05;19.90;76.70
46043;DHT22;32533;-33.854;18.542;2022-09-09T17:41:39;19.90;76.80
46043;DHT22;32533;-33.854;18.542;2022-09-09T17:44:07;19.90;76.60
46043;DHT22;32533;-33.854;18.542;2022-09-09T17:46:41;19.80;77.10
46043;DHT22;32533;-33.854;18.542;2022-09-09T17:49:11;19.80;77.00
46043;DHT22;32533;-33.854;18.542;2022-09-09T17:51:38;19.80;76.90
46043;DHT22;32533;-33.854;18.542;2022-09-09T17:54:20;19.80;76.90
46043;DHT22;32533;-33.854;18.542;2022-09-09T17:56:47;19.80;76.70
46043;DHT22;32533;-33.854;18.542;2022-09-09T17:59:15;19.80;77.10
46043;DHT22;32533;-33.854;18.542;2022-09-09T18:01:44;19.80;77.00
46043;DHT22;32533;-33.854;18.542;2022-09-09T18:04:12;19.70;77.10
46043;DHT22;32533;-33.854;18.542;2022-09-09T18:06:46;19.70;77.10
46043;DHT22;32533;-33.854;18.542;2022-09-09T18:09:16;19.70;77.50
46043;DHT22;32533;-33.854;18.542;2022-09-09T18:11:47;19.60;77.60
46043;DHT22;32533;-33.854;18.542;2022-09-09T18:14:17;19.60;77.80
46043;DHT22;32533;-33.854;18.542;2022-09-09T18:16:45;19.60;77.90
46043;DHT22;32533;-33.854;18.542;2022-09-09T18:19:14;19.60;78.10
46043;DHT22;32533;-33.854;18.542;2022-09-09T18:21:42;19.60;78.10
46043;DHT22;32533;-33.854;18.542;2022-09-09T18:24:10;19.60;78.10
46043;DHT22;32533;-33.854;18.542;2022-09-09T18:26:38;19.50;78.20
46043;DHT22;32533;-33.854;18.542;2022-09-09T18:29:08;19.60;78.20
46043;DHT22;32533;-33.854;18.542;2022-09-09T18:31:36;19.50;78.20
46043;DHT22;32533;-33.854;18.542;2022-09-09T18:34:09;19.50;78.20
46043;DHT22;32533;-33.854;18.542;2022-09-09T18:36:39;19.50;78.30
46043;DHT22;32533;-33.854;18.542;2022-09-09T18:39:07;19.50;78.40
46043;DHT22;32533;-33.854;18.542;2022-09-09T18:41:45;19.50;78.50
46043;DHT22;32533;-33.854;18.542;2022-09-09T18:44:15;19.50;78.50
46043;DHT22;32533;-33.854;18.542;2022-09-09T18:46:43;19.40;78.50
46043;DHT22;32533;-33.854;18.542;2022-09-09T18:49:10;19.40;78.50
46043;DHT22;32533;-33.854;18.542;2022-09-09T18:51:37;19.40;78.60
46043;DHT22;32533;-33.854;18.542;2022-09-09T18:54:32;19.40;78.60
46043;DHT22;32533;-33.854;18.542;2022-09-09T18:56:59;19.40;78.70
46043;DHT22;32533;-33.854;18.542;2022-09-09T18:59:26;19.40;78.70
46043;DHT22;32533;-33.854;18.542;2022-09-09T19:01:53;19.40;79.20
46043;DHT22;32533;-33.854;18.542;2022-09-09T19:04:22;19.30;78.80
46043;DHT22;32533;-33.854;18.542;2022-09-09T19:06:49;19.30;78.90
46043;DHT22;32533;-33.854;18.542;2022-09-09T19:09:24;19.30;79.00
46043;DHT22;32533;-33.854;18.542;2022-09-09T19:11:51;19.30;79.10
46043;DHT22;32533;-33.854;18.542;2022-09-09T19:14:18;19.30;79.10
46043;DHT22;32533;-33.854;18.542;2022-09-09T19:16:45;19.30;79.10
46043;DHT22;32533;-33.854;18.542;2022-09-09T19:19:19;19.30;79.10
46043;DHT22;32533;-33.854;18.542;2022-09-09T19:21:46;19.30;79.10
46043;DHT22;32533;-33.854;18.542;2022-09-09T19:24:16;19.20;79.00
46043;DHT22;32533;-33.854;18.542;2022-09-09T19:26:46;19.20;79.30
46043;DHT22;32533;-33.854;18.542;2022-09-09T19:29:18;19.20;79.20
46043;DHT22;32533;-33.854;18.542;2022-09-09T19:31:45;19.20;79.20
46043;DHT22;32533;-33.854;18.542;2022-09-09T19:34:13;19.20;79.20
46043;DHT22;32533;-33.854;18.542;2022-09-09T19:36:41;19.20;79.20
46043;DHT22;32533;-33.854;18.542;2022-09-09T19:39:09;19.20;79.30
46043;DHT22;32533;-33.854;18.542;2022-09-09T19:41:35;19.10;79.30
46043;DHT22;32533;-33.854;18.542;2022-09-09T19:44:04;19.10;79.30
46043;DHT22;32533;-33.854;18.542;2022-09-09T19:46:35;19.10;79.40
46043;DHT22;32533;-33.854;18.542;2022-09-09T19:49:04;19.10;79.40
46043;DHT22;32533;-33.854;18.542;2022-09-09T19:51:32;19.10;79.40
46043;DHT22;32533;-33.854;18.542;2022-09-09T19:54:04;19.10;79.30
46043;DHT22;32533;-33.854;18.542;2022-09-09T19:56:33;19.00;79.30
46043;DHT22;32533;-33.854;18.542;2022-09-09T19:59:00;19.10;79.50
46043;DHT22;32533;-33.854;18.542;2022-09-09T20:01:29;19.10;79.70
46043;DHT22;32533;-33.854;18.542;2022-09-09T22:31:28;18.00;83.60
46043;DHT22;32533;-33.854;18.542;2022-09-09T22:33:55;18.20;84.00
46043;DHT22;32533;-33.854;18.542;2022-09-09T22:36:21;18.20;83.80
46043;DHT22;32533;-33.854;18.542;2022-09-09T22:38:48;18.20;83.70
46043;DHT22;32533;-33.854;18.542;2022-09-09T22:41:15;18.30;83.50
46043;DHT22;32533;-33.854;18.542;2022-09-09T22:43:44;18.30;83.40
46043;DHT22;32533;-33.854;18.542;2022-09-09T22:46:11;18.30;83.30
46043;DHT22;32533;-33.854;18.542;2022-09-09T22:48:39;18.30;83.20
46043;DHT22;32533;-33.854;18.542;2022-09-09T22:51:08;18.30;83.20
46043;DHT22;32533;-33.854;18.542;2022-09-09T22:53:36;18.30;83.10
46043;DHT22;32533;-33.854;18.542;2022-09-09T22:56:09;18.30;83.20
46043;DHT22;32533;-33.854;18.542;2022-09-09T22:58:37;18.30;83.20